Time;durP1;ratioP1;P1;durP2;ratioP2;P2;SDS_P1;SDS_P2;PMS_P1;PMS_P2;Temp;Humidity;BMP_temperature;BMP_pressure;BME280_temperature;BME280_humidity;BME280_pressure;Samples;Min_cycle;Max_cycle;Signal;HPM_P1;HPM_P2
2023/03/19 00:02:28;;;;;;;13.05;9.38;;;;;;;;;;4985977;28;20412;-82
2023/03/19 00:04:56;;;;;;;14.15;8.75;;;;;;;;;;4989735;28;20074;-80
2023/03/19 00:07:24;;;;;;;14.32;9.52;;;;;;;;;;4988739;28;20920;-79
2023/03/19 00:09:53;;;;;;;11.55;8.52;;;;;;;;;;4991592;28;20042;-81
2023/03/19 00:12:22;;;;;;;13.60;9.30;;;;;;;;;;4989890;28;20077;-81
2023/03/19 00:14:51;;;;;;;13.85;9.40;;;;;;;;;;4991080;28;20137;-78
2023/03/19 00:17:18;;;;;;;13.15;9.18;;;;;;;;;;4987108;28;20080;-80
2023/03/19 00:19:47;;;;;;;14.02;9.38;;;;;;;;;;4987588;28;20073;-80
2023/03/19 00:22:15;;;;;;;15.02;10.57;;;;;;;;;;4992231;28;20295;-78
2023/03/19 00:24:44;;;;;;;11.98;9.00;;;;;;;;;;5005446;28;20047;-80
2023/03/19 00:27:12;;;;;;;11.55;9.02;;;;;;;;;;4988102;28;20472;-81
2023/03/19 00:29:40;;;;;;;14.00;8.73;;;;;;;;;;4987075;28;20452;-81
2023/03/19 00:32:09;;;;;;;14.27;9.10;;;;;;;;;;4984345;28;20046;-79
2023/03/19 00:34:37;;;;;;;13.73;9.25;;;;;;;;;;4986873;28;20047;-81
2023/03/19 00:37:04;;;;;;;15.43;9.02;;;;;;;;;;4986021;28;20221;-80
2023/03/19 00:39:32;;;;;;;16.30;11.25;;;;;;;;;;4982489;28;20035;-80
2023/03/19 00:42:00;;;;;;;15.82;9.88;;;;;;;;;;4983339;28;20043;-81
2023/03/19 00:44:27;;;;;;;13.93;9.85;;;;;;;;;;4982484;28;20051;-81
2023/03/19 00:46:57;;;;;;;14.90;9.20;;;;;;;;;;4985919;28;20179;-82
2023/03/19 00:49:25;;;;;;;16.85;10.40;;;;;;;;;;4982653;28;20577;-81
2023/03/19 00:51:55;;;;;;;13.57;9.88;;;;;;;;;;4983487;28;20490;-80
2023/03/19 00:54:22;;;;;;;12.75;9.55;;;;;;;;;;4985794;28;20350;-80
2023/03/19 00:56:51;;;;;;;15.55;10.55;;;;;;;;;;4988346;28;20042;-81
2023/03/19 00:59:19;;;;;;;14.52;10.07;;;;;;;;;;4983430;28;20046;-79
2023/03/19 01:01:51;;;;;;;;;;;;;;;;;;4988742;28;20050;-79
2023/03/19 01:04:22;;;;;;;15.65;9.68;;;;;;;;;;4999419;28;19925;-79
2023/03/19 01:06:51;;;;;;;16.67;10.80;;;;;;;;;;4987938;28;20129;-80
2023/03/19 01:09:20;;;;;;;11.65;8.65;;;;;;;;;;4981547;28;20495;-81
2023/03/19 01:11:48;;;;;;;15.27;9.05;;;;;;;;;;4985973;28;20038;-81
2023/03/19 01:14:16;;;;;;;12.43;8.98;;;;;;;;;;4980510;28;20054;-80
2023/03/19 01:16:44;;;;;;;13.90;10.30;;;;;;;;;;4978230;28;20141;-79
2023/03/19 01:19:12;;;;;;;9.13;7.38;;;;;;;;;;4984179;28;20061;-78
2023/03/19 01:21:41;;;;;;;12.10;8.93;;;;;;;;;;4983511;28;20054;-79
2023/03/19 01:24:09;;;;;;;10.63;8.90;;;;;;;;;;4981475;28;20042;-80
2023/03/19 01:26:37;;;;;;;13.70;8.75;;;;;;;;;;4980788;28;20099;-80
2023/03/19 01:29:27;;;;;;;12.35;7.93;;;;;;;;;;4982589;28;20072;-80
2023/03/19 01:31:57;;;;;;;16.67;8.35;;;;;;;;;;4979106;28;20470;-79
2023/03/19 01:34:37;;;;;;;11.77;8.88;;;;;;;;;;4978172;28;20046;-80
2023/03/19 01:37:08;;;;;;;11.70;8.30;;;;;;;;;;4977735;28;20390;-80
2023/03/19 01:39:37;;;;;;;11.63;8.82;;;;;;;;;;4979637;28;20297;-80
2023/03/19 01:42:07;;;;;;;15.73;9.30;;;;;;;;;;4968983;28;20050;-79
2023/03/19 01:44:52;;;;;;;14.95;10.63;;;;;;;;;;4993134;28;20488;-80
2023/03/19 01:47:29;;;;;;;15.13;11.07;;;;;;;;;;4985875;28;20046;-80
2023/03/19 01:50:22;;;;;;;12.55;9.73;;;;;;;;;;4983331;28;20054;-80
2023/03/19 01:52:55;;;;;;;10.95;9.10;;;;;;;;;;4976443;28;20092;-79
2023/03/19 01:55:30;;;;;;;14.05;9.90;;;;;;;;;;4976745;28;20046;-80
2023/03/19 01:58:16;;;;;;;12.52;8.52;;;;;;;;;;4976283;28;20156;-81
2023/03/19 02:01:03;;;;;;;11.43;8.77;;;;;;;;;;4975166;28;20058;-79
2023/03/19 02:03:32;;;;;;;12.75;9.52;;;;;;;;;;4967028;28;20047;-81
2023/03/19 02:06:16;;;;;;;11.80;8.93;;;;;;;;;;4976563;28;20078;-80
2023/03/19 02:08:43;;;;;;;14.90;9.25;;;;;;;;;;4983700;28;20050;-80
2023/03/19 02:11:11;;;;;;;9.75;8.25;;;;;;;;;;4985110;28;20178;-80
2023/03/19 02:13:38;;;;;;;11.00;9.10;;;;;;;;;;4981526;28;20416;-80
2023/03/19 02:16:06;;;;;;;13.50;10.75;;;;;;;;;;4982402;28;20078;-78
2023/03/19 02:18:34;;;;;;;11.70;10.40;;;;;;;;;;4981249;28;20508;-80
2023/03/19 02:21:04;;;;;;;12.20;8.60;;;;;;;;;;4995681;28;20107;-78
2023/03/19 02:23:40;;;;;;;12.15;9.40;;;;;;;;;;5006690;28;20050;-79
2023/03/19 02:26:21;;;;;;;11.80;9.23;;;;;;;;;;4978091;28;20042;-80
2023/03/19 02:28:51;;;;;;;13.80;9.45;;;;;;;;;;4977840;28;20582;-80
2023/03/19 02:31:24;;;;;;;13.82;8.75;;;;;;;;;;4982447;28;20038;-79
2023/03/19 02:34:11;;;;;;;12.90;8.77;;;;;;;;;;4973401;28;20070;-79
2023/03/19 02:36:41;;;;;;;12.98;8.88;;;;;;;;;;4969892;28;20124;-80
2023/03/19 02:39:15;;;;;;;11.75;8.32;;;;;;;;;;4979190;28;20116;-80
2023/03/19 02:41:42;;;;;;;12.93;9.63;;;;;;;;;;4980214;28;20515;-81
2023/03/19 02:44:10;;;;;;;11.93;8.70;;;;;;;;;;4982794;28;20572;-79
2023/03/19 02:46:38;;;;;;;12.38;8.50;;;;;;;;;;4983623;28;20077;-80
2023/03/19 02:49:05;;;;;;;11.73;8.63;;;;;;;;;;4978562;28;20138;-81
2023/03/19 02:51:33;;;;;;;11.88;8.25;;;;;;;;;;4975869;28;20096;-79
2023/03/19 02:54:00;;;;;;;12.88;8.45;;;;;;;;;;4980963;28;20108;-80
2023/03/19 02:56:28;;;;;;;13.15;8.95;;;;;;;;;;4986449;28;20406;-81
2023/03/19 02:58:55;;;;;;;11.25;8.70;;;;;;;;;;4973735;28;20375;-81
2023/03/19 03:01:23;;;;;;;12.70;8.73;;;;;;;;;;4987987;28;20062;-79
2023/03/19 03:03:51;;;;;;;11.90;8.32;;;;;;;;;;4998962;28;20050;-79
2023/03/19 03:06:18;;;;;;;12.10;8.98;;;;;;;;;;4978937;28;20050;-80
2023/03/19 03:08:45;;;;;;;12.65;9.15;;;;;;;;;;4986506;28;20058;-80
2023/03/19 03:11:13;;;;;;;12.77;9.15;;;;;;;;;;4978753;28;20138;-80
2023/03/19 03:13:40;;;;;;;13.18;9.02;;;;;;;;;;4982597;28;20050;-80
2023/03/19 03:16:08;;;;;;;12.02;9.07;;;;;;;;;;4978787;28;20050;-80
2023/03/19 03:18:36;;;;;;;9.77;7.97;;;;;;;;;;4982970;28;20058;-81
2023/03/19 03:21:03;;;;;;;13.27;8.15;;;;;;;;;;4982789;28;20046;-81
2023/03/19 03:23:31;;;;;;;10.80;8.50;;;;;;;;;;4978134;28;20065;-79
2023/03/19 03:25:59;;;;;;;10.20;7.70;;;;;;;;;;4981112;28;20054;-80
2023/03/19 03:28:26;;;;;;;11.88;7.22;;;;;;;;;;4978795;28;20046;-80
2023/03/19 03:30:58;;;;;;;13.23;7.85;;;;;;;;;;4989219;28;20046;-81
2023/03/19 03:33:26;;;;;;;10.18;7.32;;;;;;;;;;4988691;28;20043;-80
2023/03/19 03:35:54;;;;;;;12.30;7.85;;;;;;;;;;4981282;28;20149;-80
2023/03/19 03:38:22;;;;;;;10.25;7.60;;;;;;;;;;4984891;28;20057;-80
2023/03/19 03:40:53;;;;;;;10.63;7.28;;;;;;;;;;4985522;28;20030;-79
2023/03/19 03:43:24;;;;;;;10.32;7.28;;;;;;;;;;5006476;28;20030;-80
2023/03/19 03:45:52;;;;;;;11.27;7.97;;;;;;;;;;4979241;28;20050;-79
2023/03/19 03:48:20;;;;;;;10.32;7.93;;;;;;;;;;4974057;28;20093;-79
2023/03/19 03:50:49;;;;;;;10.40;8.13;;;;;;;;;;4972810;28;20057;-79
2023/03/19 03:53:20;;;;;;;11.10;8.48;;;;;;;;;;4975521;28;20050;-79
2023/03/19 03:55:48;;;;;;;12.65;8.52;;;;;;;;;;4981313;28;20439;-79
2023/03/19 03:58:20;;;;;;;10.32;6.70;;;;;;;;;;4975367;28;20047;-80
2023/03/19 04:00:47;;;;;;;11.50;8.13;;;;;;;;;;4984731;28;20047;-80
2023/03/19 04:03:14;;;;;;;9.00;7.40;;;;;;;;;;4969889;28;20114;-81
2023/03/19 04:05:43;;;;;;;9.48;6.88;;;;;;;;;;4980942;28;20079;-80
2023/03/19 04:08:11;;;;;;;10.80;7.22;;;;;;;;;;4976816;28;20058;-79
2023/03/19 04:10:41;;;;;;;9.38;7.07;;;;;;;;;;4982330;28;20068;-80
2023/03/19 04:13:08;;;;;;;11.25;7.75;;;;;;;;;;4979043;28;20042;-81
2023/03/19 04:15:37;;;;;;;13.05;8.15;;;;;;;;;;4984752;28;20042;-80
2023/03/19 04:18:05;;;;;;;9.85;7.40;;;;;;;;;;4979638;28;20058;-81
2023/03/19 04:20:32;;;;;;;11.10;7.97;;;;;;;;;;4985777;28;20126;-79
2023/03/19 04:23:01;;;;;;;9.77;7.43;;;;;;;;;;5004842;28;20038;-79
2023/03/19 04:25:28;;;;;;;8.60;6.70;;;;;;;;;;4985380;28;20099;-80
2023/03/19 04:27:57;;;;;;;8.60;6.65;;;;;;;;;;4976605;28;20119;-80
2023/03/19 04:30:26;;;;;;;10.73;7.95;;;;;;;;;;4983129;28;20515;-79
2023/03/19 04:32:55;;;;;;;11.80;7.47;;;;;;;;;;4981080;28;20046;-80
2023/03/19 04:35:23;;;;;;;8.35;6.50;;;;;;;;;;4974474;28;20067;-80
2023/03/19 04:37:50;;;;;;;10.43;7.38;;;;;;;;;;4985433;28;20092;-81
2023/03/19 04:40:20;;;;;;;11.00;8.02;;;;;;;;;;4986657;28;20050;-81
2023/03/19 04:42:48;;;;;;;10.95;7.18;;;;;;;;;;4979261;28;20043;-81
2023/03/19 04:45:30;;;;;;;11.13;8.10;;;;;;;;;;4985653;28;20069;-80
2023/03/19 04:47:58;;;;;;;10.95;7.40;;;;;;;;;;4985151;28;20054;-81
2023/03/19 04:50:26;;;;;;;11.77;6.78;;;;;;;;;;4977982;28;20553;-81
2023/03/19 04:52:55;;;;;;;12.65;7.70;;;;;;;;;;4984461;28;20057;-81
2023/03/19 04:58:11;;;;;;;11.55;7.80;;;;;;;;;;5062909;28;20044;-76
2023/03/19 05:00:41;;;;;;;11.35;8.55;;;;;;;;;;5046402;28;20083;-77
2023/03/19 05:03:08;;;;;;;14.70;8.13;;;;;;;;;;5039427;28;20406;-77
2023/03/19 05:05:36;;;;;;;10.13;7.43;;;;;;;;;;5054070;28;20045;-76
2023/03/19 05:08:07;;;;;;;10.82;7.35;;;;;;;;;;5028892;28;20056;-77
2023/03/19 05:10:36;;;;;;;10.32;6.50;;;;;;;;;;5035063;28;20623;-77
2023/03/19 05:13:04;;;;;;;10.52;7.53;;;;;;;;;;5038713;28;20453;-76
2023/03/19 05:15:33;;;;;;;10.48;7.30;;;;;;;;;;5040969;28;20044;-76
2023/03/19 05:18:07;;;;;;;12.82;7.15;;;;;;;;;;5029570;28;20521;-77
2023/03/19 05:20:38;;;;;;;10.15;8.25;;;;;;;;;;5041383;28;20052;-79
2023/03/19 05:23:10;;;;;;;12.43;7.70;;;;;;;;;;5028207;28;20064;-77
2023/03/19 05:25:42;;;;;;;9.25;7.40;;;;;;;;;;5036367;28;20555;-76
2023/03/19 05:28:13;;;;;;;10.30;7.57;;;;;;;;;;5038667;28;20052;-78
2023/03/19 05:30:42;;;;;;;10.07;7.88;;;;;;;;;;5027440;28;20300;-77
2023/03/19 05:33:31;;;;;;;9.23;7.13;;;;;;;;;;5050656;28;20045;-80
2023/03/19 05:35:58;;;;;;;8.77;5.88;;;;;;;;;;5050267;28;20522;-76
2023/03/19 05:38:38;;;;;;;12.35;7.38;;;;;;;;;;5039094;28;20044;-79
2023/03/19 05:41:10;;;;;;;6.32;5.13;;;;;;;;;;5037613;28;20067;-79
2023/03/19 05:43:54;;;;;;;13.15;7.18;;;;;;;;;;5031848;28;20055;-77
2023/03/19 05:46:57;;;;;;;9.80;7.78;;;;;;;;;;5037801;28;20529;-76
2023/03/19 05:49:28;;;;;;;10.65;7.75;;;;;;;;;;5030092;28;20041;-79
2023/03/19 05:51:57;;;;;;;8.73;6.63;;;;;;;;;;5034561;28;20049;-80
2023/03/19 05:54:24;;;;;;;10.90;7.97;;;;;;;;;;5046008;28;20091;-76
2023/03/19 05:57:03;;;;;;;10.98;8.10;;;;;;;;;;5036800;28;20057;-76
2023/03/19 05:59:31;;;;;;;10.23;7.57;;;;;;;;;;5043239;28;20053;-76
2023/03/19 06:02:25;;;;;;;12.15;7.55;;;;;;;;;;5031777;28;20421;-78
2023/03/19 06:05:07;;;;;;;9.15;7.50;;;;;;;;;;5034151;28;20052;-76
2023/03/19 06:07:35;;;;;;;9.43;7.25;;;;;;;;;;5058965;28;20048;-76
2023/03/19 06:10:05;;;;;;;11.00;8.18;;;;;;;;;;5026038;28;20138;-76
2023/03/19 06:12:32;;;;;;;7.85;5.93;;;;;;;;;;5037383;28;20045;-76
2023/03/19 06:15:38;;;;;;;7.88;6.70;;;;;;;;;;4973585;28;20051;-78
2023/03/19 06:18:21;;;;;;;;;;;;;;;;;;4957117;28;20051;-78
2023/03/19 06:20:48;;;;;;;9.10;6.90;;;;;;;;;;4993407;28;19924;-79
2023/03/19 06:23:17;;;;;;;11.02;7.53;;;;;;;;;;5035192;28;20041;-78
2023/03/19 06:25:45;;;;;;;12.30;7.28;;;;;;;;;;5025215;28;20041;-78
2023/03/19 06:28:13;;;;;;;10.35;7.43;;;;;;;;;;5037273;28;20049;-79
2023/03/19 06:30:43;;;;;;;10.32;7.93;;;;;;;;;;5032863;28;20345;-77
2023/03/19 06:33:31;;;;;;;9.93;7.80;;;;;;;;;;5046689;28;20052;-79
2023/03/19 06:35:58;;;;;;;10.95;7.80;;;;;;;;;;5035259;28;20776;-77
2023/03/19 06:38:28;;;;;;;10.32;7.97;;;;;;;;;;5036946;28;20053;-78
2023/03/19 06:40:55;;;;;;;10.10;8.20;;;;;;;;;;5049463;28;20053;-80
2023/03/19 06:43:22;;;;;;;9.68;7.47;;;;;;;;;;5052150;28;20041;-78
2023/03/19 06:45:50;;;;;;;11.60;7.95;;;;;;;;;;5056676;28;20514;-78
2023/03/19 06:48:17;;;;;;;10.02;7.60;;;;;;;;;;5052491;28;20049;-81
2023/03/19 06:50:45;;;;;;;11.00;8.32;;;;;;;;;;5045104;28;20052;-78
2023/03/19 06:53:14;;;;;;;10.77;7.80;;;;;;;;;;5050208;28;20044;-77
2023/03/19 06:55:41;;;;;;;12.13;8.02;;;;;;;;;;5050142;28;20091;-79
2023/03/19 06:58:09;;;;;;;11.68;8.30;;;;;;;;;;5049015;28;20127;-80
2023/03/19 07:00:36;;;;;;;14.43;8.32;;;;;;;;;;5045088;28;20113;-78
2023/03/19 07:03:04;;;;;;;11.30;7.93;;;;;;;;;;5049560;28;20072;-79
2023/03/19 07:05:31;;;;;;;11.68;7.85;;;;;;;;;;5041526;28;20040;-77
2023/03/19 07:07:59;;;;;;;9.15;7.95;;;;;;;;;;5050461;28;20410;-78
2023/03/19 07:10:26;;;;;;;10.05;8.00;;;;;;;;;;5046041;28;20149;-80
2023/03/19 07:12:53;;;;;;;11.95;8.90;;;;;;;;;;5047596;28;20068;-78
2023/03/19 07:15:21;;;;;;;11.68;8.60;;;;;;;;;;5047190;28;20045;-80
2023/03/19 07:17:48;;;;;;;9.75;7.72;;;;;;;;;;5053302;28;20055;-77
2023/03/19 07:20:16;;;;;;;12.90;8.38;;;;;;;;;;5045653;28;20053;-78
2023/03/19 07:22:43;;;;;;;10.98;7.97;;;;;;;;;;5053468;28;20041;-84
2023/03/19 07:25:10;;;;;;;10.80;8.15;;;;;;;;;;5057407;28;20072;-79
2023/03/19 07:27:38;;;;;;;10.52;8.18;;;;;;;;;;5033565;28;20517;-79
2023/03/19 07:30:06;;;;;;;9.32;7.72;;;;;;;;;;5053774;28;20059;-81
2023/03/19 07:32:33;;;;;;;11.02;8.13;;;;;;;;;;5044746;28;20053;-82
2023/03/19 07:35:01;;;;;;;9.77;7.65;;;;;;;;;;5048918;28;20059;-79
2023/03/19 07:37:29;;;;;;;7.80;6.88;;;;;;;;;;5053781;28;20058;-80
2023/03/19 07:39:56;;;;;;;11.02;7.32;;;;;;;;;;5056089;28;20410;-80
2023/03/19 07:42:24;;;;;;;9.82;7.93;;;;;;;;;;5033888;28;20067;-78
2023/03/19 07:44:51;;;;;;;11.32;7.80;;;;;;;;;;5049949;28;20131;-77
2023/03/19 07:47:19;;;;;;;8.18;7.30;;;;;;;;;;5029584;28;20049;-78
2023/03/19 07:49:56;;;;;;;8.93;8.02;;;;;;;;;;5048977;28;20155;-78
2023/03/19 07:52:24;;;;;;;8.68;7.50;;;;;;;;;;5052325;28;20036;-78
2023/03/19 07:54:51;;;;;;;12.52;7.80;;;;;;;;;;5048925;28;20045;-78
2023/03/19 07:57:19;;;;;;;9.18;7.25;;;;;;;;;;5055358;28;20102;-78
2023/03/19 07:59:47;;;;;;;9.13;7.75;;;;;;;;;;5054288;28;20048;-79
2023/03/19 08:02:14;;;;;;;13.23;7.50;;;;;;;;;;5051327;28;20037;-77
2023/03/19 08:04:42;;;;;;;8.07;7.20;;;;;;;;;;5043908;28;20056;-78
2023/03/19 08:07:11;;;;;;;9.73;7.57;;;;;;;;;;5055695;28;20489;-80
2023/03/19 08:09:39;;;;;;;8.88;7.15;;;;;;;;;;5034252;28;20044;-77
2023/03/19 08:12:07;;;;;;;10.25;7.20;;;;;;;;;;5054404;28;20044;-78
2023/03/19 08:14:36;;;;;;;7.70;6.30;;;;;;;;;;5045448;28;20033;-77
2023/03/19 08:17:04;;;;;;;11.27;8.25;;;;;;;;;;5044998;28;20611;-82
2023/03/19 08:19:32;;;;;;;8.60;7.70;;;;;;;;;;5053703;28;20727;-79
2023/03/19 08:21:59;;;;;;;8.50;7.15;;;;;;;;;;5052191;28;20780;-76
2023/03/19 08:24:27;;;;;;;9.45;7.93;;;;;;;;;;5042255;28;20152;-76
2023/03/19 08:26:55;;;;;;;9.55;7.03;;;;;;;;;;5045997;28;20040;-78
2023/03/19 08:29:25;;;;;;;9.65;8.75;;;;;;;;;;5029638;28;20107;-79
2023/03/19 08:31:55;;;;;;;12.02;10.65;;;;;;;;;;5054055;28;20036;-79
2023/03/19 08:34:22;;;;;;;9.10;7.95;;;;;;;;;;5041295;28;20043;-79
2023/03/19 08:36:50;;;;;;;14.93;7.50;;;;;;;;;;5046017;28;20048;-77
2023/03/19 08:39:18;;;;;;;11.77;7.40;;;;;;;;;;5047727;28;20041;-77
2023/03/19 08:41:45;;;;;;;9.23;7.00;;;;;;;;;;5043007;28;20041;-79
2023/03/19 08:44:13;;;;;;;10.85;7.53;;;;;;;;;;5050170;28;20072;-79
2023/03/19 08:46:41;;;;;;;9.85;7.53;;;;;;;;;;5047677;28;20064;-78
2023/03/19 08:49:09;;;;;;;10.65;7.38;;;;;;;;;;5056162;28;20059;-78
2023/03/19 08:51:36;;;;;;;10.75;7.70;;;;;;;;;;5045419;28;20082;-79
2023/03/19 08:54:03;;;;;;;9.43;7.38;;;;;;;;;;5053129;28;20047;-78
2023/03/19 08:56:31;;;;;;;10.90;7.35;;;;;;;;;;5051807;28;20049;-79
2023/03/19 08:58:59;;;;;;;8.65;7.10;;;;;;;;;;5048462;28;20623;-79
2023/03/19 09:01:26;;;;;;;13.02;7.15;;;;;;;;;;5049369;28;20075;-78
2023/03/19 09:03:53;;;;;;;8.82;7.13;;;;;;;;;;5045719;28;20102;-78
2023/03/19 09:06:21;;;;;;;9.10;6.80;;;;;;;;;;5044744;28;20045;-78
2023/03/19 09:08:48;;;;;;;8.52;7.47;;;;;;;;;;5040940;28;20499;-78
2023/03/19 09:11:17;;;;;;;10.48;6.95;;;;;;;;;;5049155;28;20059;-78
2023/03/19 09:13:45;;;;;;;9.27;6.28;;;;;;;;;;5047517;28;20036;-78
2023/03/19 09:16:12;;;;;;;7.85;6.45;;;;;;;;;;5043717;28;20051;-77
2023/03/19 09:18:40;;;;;;;11.68;7.25;;;;;;;;;;5051322;28;20052;-78
2023/03/19 09:21:07;;;;;;;7.93;6.72;;;;;;;;;;5047886;28;20385;-78
2023/03/19 09:23:35;;;;;;;11.40;8.60;;;;;;;;;;5055254;28;20068;-77
2023/03/19 09:26:02;;;;;;;8.30;7.43;;;;;;;;;;5042730;28;20044;-77
2023/03/19 09:28:30;;;;;;;13.05;7.40;;;;;;;;;;5040186;28;20163;-77
2023/03/19 09:30:57;;;;;;;11.10;7.07;;;;;;;;;;5044967;28;20080;-77
2023/03/19 09:33:25;;;;;;;9.43;7.82;;;;;;;;;;5050103;28;20099;-78
2023/03/19 09:35:53;;;;;;;10.30;7.20;;;;;;;;;;5048881;28;20045;-77
2023/03/19 09:38:21;;;;;;;8.27;7.13;;;;;;;;;;5043687;28;20510;-78
2023/03/19 09:40:51;;;;;;;8.30;7.47;;;;;;;;;;5043999;28;20053;-78
2023/03/19 09:43:27;;;;;;;9.82;6.63;;;;;;;;;;5025193;28;20144;-79
2023/03/19 09:45:55;;;;;;;12.05;7.15;;;;;;;;;;5029962;28;20059;-78
2023/03/19 09:48:31;;;;;;;18.20;12.75;;;;;;;;;;5051430;28;20068;-79
2023/03/19 09:51:00;;;;;;;11.07;7.20;;;;;;;;;;5049902;28;20049;-78
2023/03/19 09:53:37;;;;;;;8.27;7.07;;;;;;;;;;5040665;28;20041;-78
2023/03/19 09:56:07;;;;;;;10.65;9.63;;;;;;;;;;5042967;28;20040;-78
2023/03/19 09:58:35;;;;;;;8.57;7.38;;;;;;;;;;5044109;28;20041;-79
2023/03/19 10:01:03;;;;;;;10.75;7.72;;;;;;;;;;5048584;28;20057;-78
2023/03/19 10:03:36;;;;;;;13.60;8.80;;;;;;;;;;5051177;28;20496;-78
2023/03/19 10:06:16;;;;;;;9.45;8.20;;;;;;;;;;5049801;28;20045;-78
2023/03/19 10:08:58;;;;;;;10.82;7.95;;;;;;;;;;5058655;28;20040;-79
2023/03/19 10:11:37;;;;;;;8.68;7.63;;;;;;;;;;5056942;28;20089;-78
2023/03/19 10:14:11;;;;;;;11.13;8.73;;;;;;;;;;5051054;28;20072;-78
2023/03/19 10:16:43;;;;;;;10.68;8.45;;;;;;;;;;5051125;28;20063;-79
2023/03/19 10:19:14;;;;;;;10.68;8.20;;;;;;;;;;5055804;28;20056;-79
2023/03/19 10:21:45;;;;;;;9.70;8.70;;;;;;;;;;5056400;28;20051;-78
2023/03/19 10:24:15;;;;;;;9.20;7.63;;;;;;;;;;5051736;28;20049;-78
2023/03/19 10:26:43;;;;;;;13.85;7.95;;;;;;;;;;5052413;28;20051;-78
2023/03/19 10:29:15;;;;;;;10.65;8.02;;;;;;;;;;5034352;28;20064;-78
2023/03/19 10:31:46;;;;;;;9.60;8.30;;;;;;;;;;5048478;28;20033;-78
2023/03/19 10:34:14;;;;;;;8.70;7.72;;;;;;;;;;5051010;28;20049;-78
2023/03/19 10:36:41;;;;;;;11.25;8.85;;;;;;;;;;5047441;28;20812;-77
2023/03/19 10:39:11;;;;;;;12.10;8.50;;;;;;;;;;5048421;28;20045;-78
2023/03/19 10:41:41;;;;;;;11.20;9.00;;;;;;;;;;5049530;28;20056;-78
2023/03/19 10:44:16;;;;;;;11.27;8.70;;;;;;;;;;5047744;28;20049;-78
2023/03/19 10:46:43;;;;;;;10.93;8.52;;;;;;;;;;5061561;28;20102;-78
2023/03/19 10:49:12;;;;;;;10.82;9.07;;;;;;;;;;5052780;28;20048;-78
2023/03/19 10:51:39;;;;;;;9.23;8.27;;;;;;;;;;5047701;28;20047;-78
2023/03/19 10:54:15;;;;;;;11.63;9.02;;;;;;;;;;5055573;28;20044;-78
2023/03/19 10:56:45;;;;;;;25.70;15.88;;;;;;;;;;5015664;28;20045;-80
2023/03/19 10:59:21;;;;;;;13.77;10.32;;;;;;;;;;5025274;28;20124;-80
2023/03/19 11:01:48;;;;;;;12.70;10.18;;;;;;;;;;5002447;28;20052;-80
2023/03/19 11:04:22;;;;;;;12.25;10.30;;;;;;;;;;5015898;28;20233;-79
2023/03/19 11:06:50;;;;;;;13.07;10.85;;;;;;;;;;5037942;28;20045;-80
2023/03/19 11:09:22;;;;;;;13.02;10.68;;;;;;;;;;5040289;28;20144;-79
2023/03/19 11:11:52;;;;;;;12.32;10.60;;;;;;;;;;5038385;28;20049;-79
2023/03/19 11:14:31;;;;;;;15.13;11.38;;;;;;;;;;5033105;28;20045;-80
2023/03/19 11:17:03;;;;;;;12.40;10.65;;;;;;;;;;5016709;28;20045;-79
2023/03/19 11:19:33;;;;;;;13.30;11.07;;;;;;;;;;5039613;28;20041;-79
2023/03/19 11:22:15;;;;;;;14.43;11.00;;;;;;;;;;5015149;28;20053;-80
2023/03/19 11:24:49;;;;;;;11.77;10.23;;;;;;;;;;5024164;28;20049;-81
2023/03/19 11:27:16;;;;;;;12.07;10.63;;;;;;;;;;5027526;28;20145;-80
2023/03/19 11:29:44;;;;;;;11.65;10.50;;;;;;;;;;5024359;28;20515;-80
2023/03/19 11:32:31;;;;;;;12.43;10.45;;;;;;;;;;5009136;28;20041;-80
2023/03/19 11:35:14;;;;;;;13.43;10.98;;;;;;;;;;5008552;28;20039;-80
2023/03/19 11:37:50;;;;;;;13.13;10.68;;;;;;;;;;5030128;28;20447;-80
2023/03/19 11:40:30;;;;;;;12.32;10.40;;;;;;;;;;5008440;28;20072;-80
2023/03/19 11:43:16;;;;;;;12.38;9.70;;;;;;;;;;5027054;28;20049;-80
2023/03/19 11:45:46;;;;;;;12.15;9.63;;;;;;;;;;5030245;28;20141;-81
2023/03/19 11:48:14;;;;;;;10.50;9.38;;;;;;;;;;5029678;28;20053;-80
2023/03/19 11:50:45;;;;;;;11.35;10.15;;;;;;;;;;5020679;28;20073;-80
2023/03/19 11:53:26;;;;;;;12.25;10.30;;;;;;;;;;5030302;28;20072;-80
2023/03/19 11:55:53;;;;;;;11.68;10.32;;;;;;;;;;5025188;28;20041;-81
2023/03/19 11:58:29;;;;;;;13.35;10.32;;;;;;;;;;5018485;28;20425;-80
2023/03/19 12:01:00;;;;;;;15.25;9.80;;;;;;;;;;5024770;28;20104;-80
2023/03/19 12:03:47;;;;;;;11.30;9.80;;;;;;;;;;5012586;28;20049;-80
2023/03/19 12:06:24;;;;;;;11.52;9.15;;;;;;;;;;5021947;28;20550;-80
2023/03/19 12:08:59;;;;;;;24.80;22.35;;;;;;;;;;5020088;28;20042;-80
2023/03/19 12:11:34;;;;;;;12.45;9.18;;;;;;;;;;5014141;28;20106;-81
2023/03/19 12:14:10;;;;;;;13.98;10.63;;;;;;;;;;5012625;28;20042;-80
2023/03/19 12:16:43;;;;;;;13.80;9.07;;;;;;;;;;5011891;28;20061;-80
2023/03/19 12:19:28;;;;;;;11.52;9.77;;;;;;;;;;5010614;28;20058;-80
2023/03/19 12:22:14;;;;;;;10.68;9.57;;;;;;;;;;5009982;28;20080;-81
2023/03/19 12:24:57;;;;;;;13.40;10.02;;;;;;;;;;5009756;28;20078;-81
2023/03/19 12:27:40;;;;;;;38.40;32.88;;;;;;;;;;4991311;28;20124;-81
2023/03/19 12:30:13;;;;;;;10.93;8.48;;;;;;;;;;5020276;28;20096;-80
2023/03/19 12:32:45;;;;;;;10.70;9.00;;;;;;;;;;5022248;28;20073;-81
2023/03/19 12:35:24;;;;;;;11.25;8.98;;;;;;;;;;5038636;28;20136;-81
2023/03/19 12:37:56;;;;;;;12.35;8.30;;;;;;;;;;5018811;28;20045;-81
2023/03/19 12:40:33;;;;;;;12.48;9.85;;;;;;;;;;5010747;28;20077;-81
2023/03/19 12:43:03;;;;;;;13.00;10.00;;;;;;;;;;5010856;28;20048;-81
2023/03/19 12:45:34;;;;;;;11.25;8.32;;;;;;;;;;4995340;28;20050;-81
2023/03/19 12:48:06;;;;;;;13.40;10.10;;;;;;;;;;5020417;28;20140;-81
2023/03/19 12:50:34;;;;;;;13.40;9.95;;;;;;;;;;5016135;28;20042;-81
2023/03/19 12:53:05;;;;;;;11.23;9.68;;;;;;;;;;5022151;28;20052;-81
2023/03/19 12:55:45;;;;;;;10.88;9.07;;;;;;;;;;5027552;28;20043;-81
2023/03/19 12:58:20;;;;;;;11.38;9.23;;;;;;;;;;5007572;28;20128;-81
2023/03/19 13:00:51;;;;;;;11.45;8.80;;;;;;;;;;5023346;28;20061;-81
2023/03/19 13:03:24;;;;;;;12.98;9.05;;;;;;;;;;5010410;28;20052;-80
2023/03/19 13:06:01;;;;;;;13.68;9.68;;;;;;;;;;5010172;28;20049;-81
2023/03/19 13:08:33;;;;;;;12.85;10.02;;;;;;;;;;5031001;28;20111;-80
2023/03/19 13:11:03;;;;;;;15.20;13.80;;;;;;;;;;5034637;28;20065;-80
2023/03/19 13:13:43;;;;;;;11.82;10.30;;;;;;;;;;5035037;28;20045;-80
2023/03/19 13:16:23;;;;;;;14.38;10.88;;;;;;;;;;5026118;28;20617;-80
2023/03/19 13:19:03;;;;;;;10.90;9.73;;;;;;;;;;5019247;28;20080;-80
2023/03/19 13:21:33;;;;;;;26.00;19.38;;;;;;;;;;5008533;28;20053;-81
2023/03/19 13:24:12;;;;;;;12.00;10.70;;;;;;;;;;5031482;28;20068;-80
2023/03/19 13:26:39;;;;;;;14.45;12.00;;;;;;;;;;5024253;28;20553;-80
2023/03/19 13:29:07;;;;;;;13.98;11.70;;;;;;;;;;5036012;28;20140;-81
2023/03/19 13:31:35;;;;;;;13.65;10.20;;;;;;;;;;5028359;28;20563;-81
2023/03/19 13:34:16;;;;;;;12.43;9.13;;;;;;;;;;5014357;28;20484;-81
2023/03/19 13:36:55;;;;;;;13.55;10.65;;;;;;;;;;5025985;28;20099;-81
2023/03/19 13:39:26;;;;;;;13.38;8.95;;;;;;;;;;5032016;28;20148;-81
2023/03/19 13:41:54;;;;;;;;;;;;;;;;;;5014960;28;20059;-81
2023/03/19 13:44:21;;;;;;;11.80;9.25;;;;;;;;;;5029582;28;19925;-81
2023/03/19 13:46:50;;;;;;;9.80;7.65;;;;;;;;;;5029647;28;20077;-81
2023/03/19 13:49:25;;;;;;;12.57;9.23;;;;;;;;;;5029491;28;20057;-81
2023/03/19 13:51:54;;;;;;;10.13;8.07;;;;;;;;;;5037023;28;20412;-80
2023/03/19 13:54:40;;;;;;;10.27;8.88;;;;;;;;;;5026314;28;20066;-81
2023/03/19 13:57:13;;;;;;;10.45;9.05;;;;;;;;;;5018471;28;20054;-80
2023/03/19 13:59:45;;;;;;;10.77;8.90;;;;;;;;;;5006824;28;20084;-81
2023/03/19 14:02:25;;;;;;;10.95;8.80;;;;;;;;;;5031503;28;20120;-82
2023/03/19 14:04:58;;;;;;;10.95;8.95;;;;;;;;;;5029454;28;20053;-81
2023/03/19 14:07:27;;;;;;;16.33;9.10;;;;;;;;;;5014799;28;20164;-82
2023/03/19 14:09:57;;;;;;;12.43;8.77;;;;;;;;;;5014309;28;20072;-81
2023/03/19 14:12:31;;;;;;;13.02;8.75;;;;;;;;;;5028632;28;20439;-81
2023/03/19 14:15:04;;;;;;;11.10;8.75;;;;;;;;;;5022186;28;20488;-81
2023/03/19 14:17:32;;;;;;;9.73;8.73;;;;;;;;;;5027924;28;20042;-80
2023/03/19 14:20:12;;;;;;;15.10;9.20;;;;;;;;;;5028363;28;20054;-80
2023/03/19 14:23:00;;;;;;;14.15;8.93;;;;;;;;;;5035671;28;20537;-80
2023/03/19 14:25:47;;;;;;;9.32;8.35;;;;;;;;;;5028847;28;20111;-81
2023/03/19 14:28:18;;;;;;;9.98;8.80;;;;;;;;;;5033467;28;20056;-79
2023/03/19 14:30:48;;;;;;;8.63;7.75;;;;;;;;;;5028604;28;20137;-78
2023/03/19 14:33:28;;;;;;;10.80;8.00;;;;;;;;;;5036596;28;20076;-79
2023/03/19 14:35:57;;;;;;;9.95;7.85;;;;;;;;;;5041400;28;20049;-80
2023/03/19 14:38:34;;;;;;;10.30;8.50;;;;;;;;;;5033924;28;20079;-79
2023/03/19 14:41:03;;;;;;;16.33;8.68;;;;;;;;;;5030251;28;20049;-80
2023/03/19 14:43:46;;;;;;;12.10;8.80;;;;;;;;;;5037658;28;20140;-81
2023/03/19 14:46:41;;;;;;;10.10;7.40;;;;;;;;;;5035189;28;20063;-83
2023/03/19 14:49:38;;;;;;;6.85;6.15;;;;;;;;;;5029179;28;20134;-81
2023/03/19 14:52:09;;;;;;;8.60;6.93;;;;;;;;;;5023622;28;20050;-80
2023/03/19 14:54:45;;;;;;;6.55;5.80;;;;;;;;;;5025372;28;20052;-80
2023/03/19 14:57:16;;;;;;;12.43;6.35;;;;;;;;;;5030928;28;20049;-81
2023/03/19 14:59:44;;;;;;;14.23;6.57;;;;;;;;;;5031755;28;20510;-80